sensor_id;sensor_type;location;lat;lon;timestamp;P1;durP1;ratioP1;P2;durP2;ratioP2
6821;SDS011;3449;48.728;8.968;2022-07-06T00:00:50;16.53;;;1.50;;
6821;SDS011;3449;48.728;8.968;2022-07-06T00:03:17;6.73;;;1.90;;
6821;SDS011;3449;48.728;8.968;2022-07-06T00:05:44;3.10;;;1.97;;
6821;SDS011;3449;48.728;8.968;2022-07-06T00:08:11;1.80;;;1.70;;
6821;SDS011;3449;48.728;8.968;2022-07-06T00:10:38;5.40;;;2.27;;
6821;SDS011;3449;48.728;8.968;2022-07-06T00:13:04;2.17;;;1.93;;
6821;SDS011;3449;48.728;8.968;2022-07-06T00:15:31;2.83;;;2.30;;
6821;SDS011;3449;48.728;8.968;2022-07-06T00:18:00;5.10;;;1.67;;
6821;SDS011;3449;48.728;8.968;2022-07-06T00:20:26;1.50;;;1.40;;
6821;SDS011;3449;48.728;8.968;2022-07-06T00:22:53;3.60;;;2.17;;
6821;SDS011;3449;48.728;8.968;2022-07-06T00:25:20;16.53;;;2.00;;
6821;SDS011;3449;48.728;8.968;2022-07-06T00:27:47;2.23;;;2.03;;
6821;SDS011;3449;48.728;8.968;2022-07-06T00:30:14;5.90;;;2.20;;
6821;SDS011;3449;48.728;8.968;2022-07-06T00:32:41;2.60;;;1.70;;
6821;SDS011;3449;48.728;8.968;2022-07-06T00:35:09;2.80;;;2.00;;
6821;SDS011;3449;48.728;8.968;2022-07-06T00:37:36;3.30;;;1.90;;
6821;SDS011;3449;48.728;8.968;2022-07-06T00:40:03;2.00;;;1.80;;
6821;SDS011;3449;48.728;8.968;2022-07-06T00:42:38;1.70;;;1.60;;
6821;SDS011;3449;48.728;8.968;2022-07-06T00:45:06;5.83;;;2.10;;
6821;SDS011;3449;48.728;8.968;2022-07-06T00:47:33;14.23;;;2.60;;
6821;SDS011;3449;48.728;8.968;2022-07-06T00:50:00;4.80;;;1.87;;
6821;SDS011;3449;48.728;8.968;2022-07-06T00:52:47;4.03;;;2.00;;
6821;SDS011;3449;48.728;8.968;2022-07-06T00:55:18;13.30;;;1.87;;
6821;SDS011;3449;48.728;8.968;2022-07-06T00:57:46;4.53;;;1.93;;
6821;SDS011;3449;48.728;8.968;2022-07-06T01:00:13;3.30;;;2.00;;
6821;SDS011;3449;48.728;8.968;2022-07-06T01:02:42;2.50;;;1.87;;
6821;SDS011;3449;48.728;8.968;2022-07-06T01:05:10;3.07;;;1.70;;
6821;SDS011;3449;48.728;8.968;2022-07-06T01:07:39;3.10;;;1.80;;
6821;SDS011;3449;48.728;8.968;2022-07-06T01:10:09;3.03;;;1.73;;
6821;SDS011;3449;48.728;8.968;2022-07-06T01:12:37;1.80;;;1.70;;
6821;SDS011;3449;48.728;8.968;2022-07-06T01:15:06;3.10;;;1.77;;
6821;SDS011;3449;48.728;8.968;2022-07-06T01:17:34;3.63;;;1.53;;
6821;SDS011;3449;48.728;8.968;2022-07-06T01:20:08;1.60;;;1.40;;
6821;SDS011;3449;48.728;8.968;2022-07-06T01:22:35;1.67;;;1.57;;
6821;SDS011;3449;48.728;8.968;2022-07-06T01:25:03;7.93;;;2.40;;
6821;SDS011;3449;48.728;8.968;2022-07-06T01:27:30;11.17;;;1.77;;
6821;SDS011;3449;48.728;8.968;2022-07-06T01:29:59;2.10;;;1.50;;
6821;SDS011;3449;48.728;8.968;2022-07-06T01:32:27;2.43;;;1.70;;
6821;SDS011;3449;48.728;8.968;2022-07-06T01:34:54;7.20;;;1.40;;
6821;SDS011;3449;48.728;8.968;2022-07-06T01:37:22;1.77;;;1.50;;
6821;SDS011;3449;48.728;8.968;2022-07-06T01:39:49;5.60;;;1.90;;
6821;SDS011;3449;48.728;8.968;2022-07-06T01:42:16;2.30;;;2.10;;
6821;SDS011;3449;48.728;8.968;2022-07-06T01:44:43;4.07;;;1.70;;
6821;SDS011;3449;48.728;8.968;2022-07-06T01:47:10;1.53;;;1.43;;
6821;SDS011;3449;48.728;8.968;2022-07-06T01:49:37;4.47;;;2.20;;
6821;SDS011;3449;48.728;8.968;2022-07-06T01:52:04;8.03;;;2.20;;
6821;SDS011;3449;48.728;8.968;2022-07-06T01:54:33;2.50;;;1.53;;
6821;SDS011;3449;48.728;8.968;2022-07-06T01:57:00;3.37;;;2.10;;
6821;SDS011;3449;48.728;8.968;2022-07-06T01:59:27;9.60;;;2.30;;
6821;SDS011;3449;48.728;8.968;2022-07-06T02:01:54;5.30;;;1.37;;
6821;SDS011;3449;48.728;8.968;2022-07-06T02:04:21;2.10;;;2.00;;
6821;SDS011;3449;48.728;8.968;2022-07-06T02:06:48;2.40;;;2.10;;
6821;SDS011;3449;48.728;8.968;2022-07-06T02:09:15;2.90;;;1.90;;
6821;SDS011;3449;48.728;8.968;2022-07-06T02:11:44;2.03;;;1.50;;
6821;SDS011;3449;48.728;8.968;2022-07-06T02:14:11;8.20;;;2.83;;
6821;SDS011;3449;48.728;8.968;2022-07-06T02:16:38;4.83;;;2.17;;
6821;SDS011;3449;48.728;8.968;2022-07-06T02:19:05;3.23;;;1.93;;
6821;SDS011;3449;48.728;8.968;2022-07-06T02:21:32;6.33;;;2.33;;
6821;SDS011;3449;48.728;8.968;2022-07-06T02:23:59;4.50;;;2.27;;
6821;SDS011;3449;48.728;8.968;2022-07-06T02:26:26;8.67;;;1.83;;
6821;SDS011;3449;48.728;8.968;2022-07-06T02:28:54;2.83;;;2.20;;
6821;SDS011;3449;48.728;8.968;2022-07-06T02:31:21;5.73;;;1.80;;
6821;SDS011;3449;48.728;8.968;2022-07-06T02:33:48;5.27;;;2.47;;
6821;SDS011;3449;48.728;8.968;2022-07-06T02:36:15;4.63;;;1.70;;
6821;SDS011;3449;48.728;8.968;2022-07-06T02:38:41;2.40;;;1.93;;
6821;SDS011;3449;48.728;8.968;2022-07-06T02:41:08;2.13;;;2.03;;
6821;SDS011;3449;48.728;8.968;2022-07-06T02:43:36;14.87;;;2.30;;
6821;SDS011;3449;48.728;8.968;2022-07-06T02:46:05;3.70;;;2.07;;
6821;SDS011;3449;48.728;8.968;2022-07-06T02:48:32;3.70;;;2.37;;
6821;SDS011;3449;48.728;8.968;2022-07-06T02:50:59;5.57;;;2.33;;
6821;SDS011;3449;48.728;8.968;2022-07-06T02:53:26;2.30;;;1.60;;
6821;SDS011;3449;48.728;8.968;2022-07-06T02:55:53;1.70;;;1.60;;
6821;SDS011;3449;48.728;8.968;2022-07-06T02:58:20;3.23;;;2.10;;
6821;SDS011;3449;48.728;8.968;2022-07-06T03:00:47;4.23;;;2.43;;
6821;SDS011;3449;48.728;8.968;2022-07-06T03:03:15;5.90;;;2.43;;
6821;SDS011;3449;48.728;8.968;2022-07-06T03:05:42;3.63;;;2.23;;
6821;SDS011;3449;48.728;8.968;2022-07-06T03:08:09;4.40;;;2.77;;
6821;SDS011;3449;48.728;8.968;2022-07-06T03:10:36;6.40;;;2.87;;
6821;SDS011;3449;48.728;8.968;2022-07-06T03:13:03;2.50;;;2.30;;
6821;SDS011;3449;48.728;8.968;2022-07-06T03:15:29;4.83;;;3.00;;
6821;SDS011;3449;48.728;8.968;2022-07-06T03:17:56;6.00;;;2.80;;
6821;SDS011;3449;48.728;8.968;2022-07-06T03:20:25;7.60;;;3.20;;
6821;SDS011;3449;48.728;8.968;2022-07-06T03:22:51;3.70;;;3.30;;
6821;SDS011;3449;48.728;8.968;2022-07-06T03:25:18;3.30;;;2.73;;
6821;SDS011;3449;48.728;8.968;2022-07-06T03:27:45;7.80;;;3.27;;
6821;SDS011;3449;48.728;8.968;2022-07-06T03:30:12;6.97;;;3.33;;
6821;SDS011;3449;48.728;8.968;2022-07-06T03:32:40;5.73;;;3.10;;
6821;SDS011;3449;48.728;8.968;2022-07-06T03:35:07;6.37;;;3.57;;
6821;SDS011;3449;48.728;8.968;2022-07-06T03:37:36;5.40;;;3.10;;
6821;SDS011;3449;48.728;8.968;2022-07-06T03:40:03;12.43;;;3.87;;
6821;SDS011;3449;48.728;8.968;2022-07-06T03:42:31;8.87;;;3.43;;
6821;SDS011;3449;48.728;8.968;2022-07-06T03:44:58;5.77;;;3.17;;
6821;SDS011;3449;48.728;8.968;2022-07-06T03:47:24;9.33;;;4.10;;
6821;SDS011;3449;48.728;8.968;2022-07-06T03:49:51;6.40;;;2.97;;
6821;SDS011;3449;48.728;8.968;2022-07-06T03:52:18;5.43;;;3.10;;
6821;SDS011;3449;48.728;8.968;2022-07-06T03:54:47;6.10;;;3.30;;
6821;SDS011;3449;48.728;8.968;2022-07-06T03:57:13;7.90;;;3.20;;
6821;SDS011;3449;48.728;8.968;2022-07-06T03:59:41;7.33;;;3.80;;
6821;SDS011;3449;48.728;8.968;2022-07-06T04:02:08;6.37;;;3.67;;
6821;SDS011;3449;48.728;8.968;2022-07-06T04:04:35;4.33;;;3.20;;
6821;SDS011;3449;48.728;8.968;2022-07-06T04:07:02;6.30;;;4.13;;
6821;SDS011;3449;48.728;8.968;2022-07-06T04:09:29;5.07;;;3.43;;
6821;SDS011;3449;48.728;8.968;2022-07-06T04:11:58;8.97;;;3.40;;
6821;SDS011;3449;48.728;8.968;2022-07-06T04:14:25;16.27;;;3.70;;
6821;SDS011;3449;48.728;8.968;2022-07-06T04:16:52;11.50;;;3.87;;
6821;SDS011;3449;48.728;8.968;2022-07-06T04:19:19;10.40;;;4.37;;
6821;SDS011;3449;48.728;8.968;2022-07-06T04:21:46;3.80;;;3.40;;
6821;SDS011;3449;48.728;8.968;2022-07-06T04:24:13;7.80;;;4.30;;
6821;SDS011;3449;48.728;8.968;2022-07-06T04:26:40;6.67;;;4.37;;
6821;SDS011;3449;48.728;8.968;2022-07-06T04:29:08;5.80;;;3.70;;
6821;SDS011;3449;48.728;8.968;2022-07-06T04:31:35;5.50;;;3.60;;
6821;SDS011;3449;48.728;8.968;2022-07-06T04:34:02;5.33;;;4.23;;
6821;SDS011;3449;48.728;8.968;2022-07-06T04:36:29;7.93;;;3.93;;
6821;SDS011;3449;48.728;8.968;2022-07-06T04:38:56;8.60;;;4.57;;
6821;SDS011;3449;48.728;8.968;2022-07-06T04:41:22;7.70;;;4.00;;
6821;SDS011;3449;48.728;8.968;2022-07-06T04:43:49;9.33;;;4.00;;
6821;SDS011;3449;48.728;8.968;2022-07-06T04:46:18;5.33;;;3.93;;
6821;SDS011;3449;48.728;8.968;2022-07-06T04:48:45;5.03;;;3.93;;
6821;SDS011;3449;48.728;8.968;2022-07-06T04:51:11;7.70;;;4.47;;
6821;SDS011;3449;48.728;8.968;2022-07-06T04:53:39;6.53;;;4.50;;
6821;SDS011;3449;48.728;8.968;2022-07-06T04:56:06;13.20;;;4.60;;
6821;SDS011;3449;48.728;8.968;2022-07-06T04:58:33;10.53;;;4.10;;
6821;SDS011;3449;48.728;8.968;2022-07-06T05:01:00;5.60;;;4.30;;
6821;SDS011;3449;48.728;8.968;2022-07-06T05:03:28;4.30;;;3.63;;
6821;SDS011;3449;48.728;8.968;2022-07-06T05:05:55;6.23;;;4.07;;
6821;SDS011;3449;48.728;8.968;2022-07-06T05:08:22;10.60;;;4.60;;
6821;SDS011;3449;48.728;8.968;2022-07-06T05:10:49;11.33;;;4.20;;
6821;SDS011;3449;48.728;8.968;2022-07-06T05:13:16;6.33;;;4.13;;
6821;SDS011;3449;48.728;8.968;2022-07-06T05:15:43;6.83;;;4.90;;
6821;SDS011;3449;48.728;8.968;2022-07-06T05:18:10;11.20;;;4.40;;
6821;SDS011;3449;48.728;8.968;2022-07-06T05:20:39;9.47;;;3.80;;
6821;SDS011;3449;48.728;8.968;2022-07-06T05:23:06;6.20;;;4.07;;
6821;SDS011;3449;48.728;8.968;2022-07-06T05:25:33;12.97;;;3.40;;
6821;SDS011;3449;48.728;8.968;2022-07-06T05:28:00;5.57;;;3.40;;
6821;SDS011;3449;48.728;8.968;2022-07-06T05:30:27;7.50;;;3.90;;
6821;SDS011;3449;48.728;8.968;2022-07-06T05:32:54;9.50;;;5.27;;
6821;SDS011;3449;48.728;8.968;2022-07-06T05:35:21;6.63;;;3.87;;
6821;SDS011;3449;48.728;8.968;2022-07-06T05:37:49;4.97;;;3.17;;
6821;SDS011;3449;48.728;8.968;2022-07-06T05:40:16;7.80;;;3.80;;
6821;SDS011;3449;48.728;8.968;2022-07-06T05:42:43;5.87;;;4.30;;
6821;SDS011;3449;48.728;8.968;2022-07-06T05:45:10;13.13;;;4.40;;
6821;SDS011;3449;48.728;8.968;2022-07-06T05:47:38;7.17;;;3.83;;
6821;SDS011;3449;48.728;8.968;2022-07-06T05:50:33;3.93;;;2.90;;
6821;SDS011;3449;48.728;8.968;2022-07-06T05:53:02;3.70;;;3.40;;
6821;SDS011;3449;48.728;8.968;2022-07-06T05:55:31;3.53;;;3.23;;
6821;SDS011;3449;48.728;8.968;2022-07-06T05:57:58;8.97;;;3.57;;
6821;SDS011;3449;48.728;8.968;2022-07-06T06:00:25;4.57;;;3.90;;
6821;SDS011;3449;48.728;8.968;2022-07-06T06:02:53;5.03;;;4.13;;
6821;SDS011;3449;48.728;8.968;2022-07-06T06:05:20;7.20;;;3.20;;
6821;SDS011;3449;48.728;8.968;2022-07-06T06:07:48;7.97;;;3.63;;
6821;SDS011;3449;48.728;8.968;2022-07-06T06:10:17;8.03;;;3.07;;
6821;SDS011;3449;48.728;8.968;2022-07-06T06:12:46;4.10;;;3.20;;
6821;SDS011;3449;48.728;8.968;2022-07-06T06:15:14;4.33;;;2.83;;
6821;SDS011;3449;48.728;8.968;2022-07-06T06:17:40;7.13;;;3.80;;
6821;SDS011;3449;48.728;8.968;2022-07-06T06:20:08;8.90;;;3.07;;
6821;SDS011;3449;48.728;8.968;2022-07-06T06:22:46;8.87;;;3.77;;
6821;SDS011;3449;48.728;8.968;2022-07-06T06:25:14;6.90;;;3.10;;
6821;SDS011;3449;48.728;8.968;2022-07-06T06:27:42;7.03;;;3.10;;
6821;SDS011;3449;48.728;8.968;2022-07-06T06:30:09;6.73;;;3.60;;
6821;SDS011;3449;48.728;8.968;2022-07-06T06:32:37;12.13;;;3.40;;
6821;SDS011;3449;48.728;8.968;2022-07-06T06:35:05;3.10;;;2.80;;
6821;SDS011;3449;48.728;8.968;2022-07-06T06:37:33;16.53;;;3.17;;
6821;SDS011;3449;48.728;8.968;2022-07-06T06:40:00;5.23;;;2.73;;
6821;SDS011;3449;48.728;8.968;2022-07-06T06:42:27;9.77;;;2.97;;
6821;SDS011;3449;48.728;8.968;2022-07-06T06:44:55;9.87;;;3.93;;
6821;SDS011;3449;48.728;8.968;2022-07-06T06:47:22;4.17;;;3.20;;
6821;SDS011;3449;48.728;8.968;2022-07-06T06:49:49;8.53;;;2.93;;
6821;SDS011;3449;48.728;8.968;2022-07-06T06:52:16;8.23;;;3.20;;
6821;SDS011;3449;48.728;8.968;2022-07-06T06:54:43;6.90;;;3.13;;
6821;SDS011;3449;48.728;8.968;2022-07-06T06:57:10;5.50;;;2.83;;
6821;SDS011;3449;48.728;8.968;2022-07-06T06:59:37;13.93;;;3.40;;
6821;SDS011;3449;48.728;8.968;2022-07-06T07:02:05;6.50;;;2.97;;
6821;SDS011;3449;48.728;8.968;2022-07-06T07:04:32;10.60;;;3.60;;
6821;SDS011;3449;48.728;8.968;2022-07-06T07:06:59;8.13;;;2.77;;
6821;SDS011;3449;48.728;8.968;2022-07-06T07:09:26;5.93;;;3.27;;
6821;SDS011;3449;48.728;8.968;2022-07-06T07:11:53;8.43;;;2.57;;
6821;SDS011;3449;48.728;8.968;2022-07-06T07:14:21;7.00;;;2.67;;
6821;SDS011;3449;48.728;8.968;2022-07-06T07:16:48;4.00;;;2.20;;
6821;SDS011;3449;48.728;8.968;2022-07-06T07:19:16;5.43;;;2.47;;
6821;SDS011;3449;48.728;8.968;2022-07-06T07:21:43;5.90;;;2.70;;
6821;SDS011;3449;48.728;8.968;2022-07-06T07:24:10;12.73;;;2.63;;
6821;SDS011;3449;48.728;8.968;2022-07-06T07:26:36;4.37;;;2.77;;
6821;SDS011;3449;48.728;8.968;2022-07-06T07:29:03;7.40;;;2.40;;
6821;SDS011;3449;48.728;8.968;2022-07-06T07:31:30;4.50;;;2.30;;
6821;SDS011;3449;48.728;8.968;2022-07-06T07:33:57;4.80;;;2.33;;
6821;SDS011;3449;48.728;8.968;2022-07-06T07:36:26;8.30;;;2.30;;
6821;SDS011;3449;48.728;8.968;2022-07-06T07:38:53;6.13;;;2.40;;
6821;SDS011;3449;48.728;8.968;2022-07-06T07:41:19;18.50;;;4.27;;
6821;SDS011;3449;48.728;8.968;2022-07-06T07:43:46;7.03;;;2.63;;
6821;SDS011;3449;48.728;8.968;2022-07-06T07:46:13;7.80;;;2.20;;
6821;SDS011;3449;48.728;8.968;2022-07-06T07:48:41;3.00;;;2.53;;
6821;SDS011;3449;48.728;8.968;2022-07-06T07:51:08;4.80;;;2.30;;
6821;SDS011;3449;48.728;8.968;2022-07-06T07:53:36;8.40;;;2.67;;
6821;SDS011;3449;48.728;8.968;2022-07-06T07:56:03;2.67;;;2.47;;
6821;SDS011;3449;48.728;8.968;2022-07-06T07:58:30;2.60;;;2.40;;
6821;SDS011;3449;48.728;8.968;2022-07-06T08:00:58;2.63;;;2.40;;
6821;SDS011;3449;48.728;8.968;2022-07-06T08:03:24;4.57;;;2.70;;
6821;SDS011;3449;48.728;8.968;2022-07-06T08:05:51;4.60;;;2.43;;
6821;SDS011;3449;48.728;8.968;2022-07-06T08:08:20;8.60;;;2.57;;
6821;SDS011;3449;48.728;8.968;2022-07-06T08:10:48;6.70;;;2.70;;
6821;SDS011;3449;48.728;8.968;2022-07-06T08:13:15;4.70;;;2.20;;
6821;SDS011;3449;48.728;8.968;2022-07-06T08:15:42;8.60;;;2.37;;
6821;SDS011;3449;48.728;8.968;2022-07-06T08:18:09;5.30;;;2.67;;
6821;SDS011;3449;48.728;8.968;2022-07-06T08:20:36;5.37;;;2.60;;
6821;SDS011;3449;48.728;8.968;2022-07-06T08:23:03;4.30;;;2.40;;
6821;SDS011;3449;48.728;8.968;2022-07-06T08:25:31;6.57;;;3.47;;
6821;SDS011;3449;48.728;8.968;2022-07-06T08:27:59;8.00;;;2.60;;
6821;SDS011;3449;48.728;8.968;2022-07-06T08:30:26;7.23;;;2.60;;
6821;SDS011;3449;48.728;8.968;2022-07-06T08:32:53;4.30;;;2.40;;
6821;SDS011;3449;48.728;8.968;2022-07-06T08:35:20;3.27;;;2.00;;
6821;SDS011;3449;48.728;8.968;2022-07-06T08:37:47;2.93;;;2.40;;
6821;SDS011;3449;48.728;8.968;2022-07-06T08:40:14;3.30;;;2.40;;
6821;SDS011;3449;48.728;8.968;2022-07-06T08:42:42;2.90;;;2.03;;
6821;SDS011;3449;48.728;8.968;2022-07-06T08:45:11;5.70;;;2.47;;
6821;SDS011;3449;48.728;8.968;2022-07-06T08:47:39;2.93;;;2.50;;
6821;SDS011;3449;48.728;8.968;2022-07-06T08:50:08;5.40;;;2.20;;
6821;SDS011;3449;48.728;8.968;2022-07-06T08:52:36;5.10;;;2.27;;
6821;SDS011;3449;48.728;8.968;2022-07-06T08:55:03;5.50;;;2.50;;
6821;SDS011;3449;48.728;8.968;2022-07-06T08:57:31;6.80;;;3.00;;
6821;SDS011;3449;48.728;8.968;2022-07-06T08:59:59;3.03;;;2.10;;
6821;SDS011;3449;48.728;8.968;2022-07-06T09:02:27;3.83;;;2.30;;
6821;SDS011;3449;48.728;8.968;2022-07-06T09:04:55;5.63;;;2.33;;
6821;SDS011;3449;48.728;8.968;2022-07-06T09:07:23;5.67;;;2.70;;
6821;SDS011;3449;48.728;8.968;2022-07-06T09:09:54;4.63;;;3.00;;
6821;SDS011;3449;48.728;8.968;2022-07-06T09:12:21;6.80;;;2.63;;
6821;SDS011;3449;48.728;8.968;2022-07-06T09:14:48;6.70;;;2.67;;
6821;SDS011;3449;48.728;8.968;2022-07-06T09:17:15;7.63;;;2.80;;
6821;SDS011;3449;48.728;8.968;2022-07-06T09:19:44;4.60;;;2.80;;
6821;SDS011;3449;48.728;8.968;2022-07-06T09:22:24;8.10;;;2.77;;
6821;SDS011;3449;48.728;8.968;2022-07-06T09:24:52;2.97;;;2.60;;
6821;SDS011;3449;48.728;8.968;2022-07-06T09:27:19;4.27;;;2.43;;
6821;SDS011;3449;48.728;8.968;2022-07-06T09:29:48;8.43;;;2.43;;
6821;SDS011;3449;48.728;8.968;2022-07-06T09:32:15;4.20;;;2.40;;
6821;SDS011;3449;48.728;8.968;2022-07-06T09:34:48;5.53;;;2.80;;
6821;SDS011;3449;48.728;8.968;2022-07-06T09:37:15;5.50;;;2.47;;
6821;SDS011;3449;48.728;8.968;2022-07-06T09:39:42;3.43;;;2.80;;
6821;SDS011;3449;48.728;8.968;2022-07-06T09:42:10;4.13;;;2.60;;
6821;SDS011;3449;48.728;8.968;2022-07-06T09:44:38;7.00;;;2.10;;
6821;SDS011;3449;48.728;8.968;2022-07-06T09:47:06;16.17;;;2.97;;
6821;SDS011;3449;48.728;8.968;2022-07-06T09:49:34;5.10;;;2.67;;
6821;SDS011;3449;48.728;8.968;2022-07-06T09:52:04;6.30;;;2.53;;
6821;SDS011;3449;48.728;8.968;2022-07-06T09:54:33;4.90;;;2.40;;
6821;SDS011;3449;48.728;8.968;2022-07-06T09:57:00;3.47;;;2.50;;
6821;SDS011;3449;48.728;8.968;2022-07-06T09:59:29;4.40;;;2.93;;
6821;SDS011;3449;48.728;8.968;2022-07-06T10:01:57;7.27;;;2.73;;
6821;SDS011;3449;48.728;8.968;2022-07-06T10:04:26;3.83;;;3.00;;
6821;SDS011;3449;48.728;8.968;2022-07-06T10:06:54;4.60;;;2.70;;
6821;SDS011;3449;48.728;8.968;2022-07-06T10:09:24;3.43;;;2.50;;
6821;SDS011;3449;48.728;8.968;2022-07-06T10:11:52;9.60;;;2.40;;
6821;SDS011;3449;48.728;8.968;2022-07-06T10:14:21;5.80;;;2.30;;
6821;SDS011;3449;48.728;8.968;2022-07-06T10:16:49;7.00;;;2.57;;
6821;SDS011;3449;48.728;8.968;2022-07-06T10:19:17;8.20;;;2.70;;
6821;SDS011;3449;48.728;8.968;2022-07-06T10:21:46;5.47;;;3.00;;
6821;SDS011;3449;48.728;8.968;2022-07-06T10:24:13;5.80;;;2.50;;
6821;SDS011;3449;48.728;8.968;2022-07-06T10:26:42;7.17;;;2.87;;
6821;SDS011;3449;48.728;8.968;2022-07-06T10:29:09;3.37;;;2.47;;
6821;SDS011;3449;48.728;8.968;2022-07-06T10:31:37;6.00;;;2.77;;
6821;SDS011;3449;48.728;8.968;2022-07-06T10:34:07;5.20;;;2.90;;
6821;SDS011;3449;48.728;8.968;2022-07-06T10:36:38;3.10;;;2.60;;
6821;SDS011;3449;48.728;8.968;2022-07-06T10:39:05;3.83;;;3.40;;
6821;SDS011;3449;48.728;8.968;2022-07-06T10:41:48;6.07;;;2.83;;
6821;SDS011;3449;48.728;8.968;2022-07-06T10:44:15;6.13;;;2.97;;
6821;SDS011;3449;48.728;8.968;2022-07-06T10:46:49;6.33;;;3.10;;
6821;SDS011;3449;48.728;8.968;2022-07-06T10:49:18;9.73;;;3.40;;
6821;SDS011;3449;48.728;8.968;2022-07-06T10:51:45;5.93;;;2.97;;
6821;SDS011;3449;48.728;8.968;2022-07-06T10:54:14;7.30;;;3.00;;
6821;SDS011;3449;48.728;8.968;2022-07-06T10:56:42;3.13;;;2.53;;
6821;SDS011;3449;48.728;8.968;2022-07-06T10:59:12;3.97;;;2.70;;
6821;SDS011;3449;48.728;8.968;2022-07-06T11:01:40;5.53;;;2.50;;
6821;SDS011;3449;48.728;8.968;2022-07-06T11:04:30;7.47;;;2.87;;
6821;SDS011;3449;48.728;8.968;2022-07-06T11:07:02;7.60;;;2.70;;
6821;SDS011;3449;48.728;8.968;2022-07-06T11:09:33;7.70;;;3.33;;
6821;SDS011;3449;48.728;8.968;2022-07-06T11:12:11;7.07;;;3.33;;
6821;SDS011;3449;48.728;8.968;2022-07-06T11:14:42;7.07;;;3.30;;
6821;SDS011;3449;48.728;8.968;2022-07-06T11:17:09;3.00;;;2.57;;
6821;SDS011;3449;48.728;8.968;2022-07-06T11:19:37;11.07;;;3.23;;
6821;SDS011;3449;48.728;8.968;2022-07-06T11:22:07;3.63;;;2.70;;
6821;SDS011;3449;48.728;8.968;2022-07-06T11:24:36;3.80;;;2.80;;
6821;SDS011;3449;48.728;8.968;2022-07-06T11:27:04;4.37;;;2.73;;
6821;SDS011;3449;48.728;8.968;2022-07-06T11:29:32;7.97;;;3.10;;
6821;SDS011;3449;48.728;8.968;2022-07-06T11:32:03;10.33;;;2.63;;
6821;SDS011;3449;48.728;8.968;2022-07-06T11:34:34;8.33;;;3.23;;
6821;SDS011;3449;48.728;8.968;2022-07-06T11:37:03;3.67;;;2.57;;
6821;SDS011;3449;48.728;8.968;2022-07-06T11:39:32;7.43;;;2.73;;
6821;SDS011;3449;48.728;8.968;2022-07-06T11:42:00;8.10;;;3.00;;
6821;SDS011;3449;48.728;8.968;2022-07-06T11:44:29;8.43;;;2.83;;
6821;SDS011;3449;48.728;8.968;2022-07-06T11:46:56;8.77;;;2.67;;
6821;SDS011;3449;48.728;8.968;2022-07-06T11:49:27;7.70;;;2.93;;
6821;SDS011;3449;48.728;8.968;2022-07-06T11:51:54;11.10;;;3.50;;
6821;SDS011;3449;48.728;8.968;2022-07-06T11:54:22;7.93;;;3.07;;
6821;SDS011;3449;48.728;8.968;2022-07-06T11:56:50;5.63;;;3.03;;
6821;SDS011;3449;48.728;8.968;2022-07-06T11:59:22;5.83;;;3.30;;
6821;SDS011;3449;48.728;8.968;2022-07-06T12:01:56;3.27;;;2.97;;
6821;SDS011;3449;48.728;8.968;2022-07-06T12:04:24;4.43;;;2.80;;
6821;SDS011;3449;48.728;8.968;2022-07-06T12:06:53;8.37;;;3.30;;
6821;SDS011;3449;48.728;8.968;2022-07-06T12:09:20;6.70;;;3.60;;
6821;SDS011;3449;48.728;8.968;2022-07-06T12:11:47;6.80;;;2.83;;
6821;SDS011;3449;48.728;8.968;2022-07-06T12:14:15;17.10;;;2.87;;
6821;SDS011;3449;48.728;8.968;2022-07-06T12:16:44;5.60;;;2.70;;
6821;SDS011;3449;48.728;8.968;2022-07-06T12:19:11;7.30;;;3.10;;
6821;SDS011;3449;48.728;8.968;2022-07-06T12:21:42;3.03;;;2.40;;
6821;SDS011;3449;48.728;8.968;2022-07-06T12:24:16;4.53;;;2.70;;
6821;SDS011;3449;48.728;8.968;2022-07-06T12:26:44;7.33;;;2.80;;
6821;SDS011;3449;48.728;8.968;2022-07-06T12:29:11;7.63;;;2.90;;
6821;SDS011;3449;48.728;8.968;2022-07-06T12:31:39;7.27;;;2.30;;
6821;SDS011;3449;48.728;8.968;2022-07-06T12:34:12;12.53;;;2.63;;
6821;SDS011;3449;48.728;8.968;2022-07-06T12:36:43;5.80;;;2.40;;
6821;SDS011;3449;48.728;8.968;2022-07-06T12:39:12;11.70;;;2.30;;
6821;SDS011;3449;48.728;8.968;2022-07-06T12:41:44;8.30;;;2.80;;
6821;SDS011;3449;48.728;8.968;2022-07-06T12:44:12;7.43;;;2.57;;
6821;SDS011;3449;48.728;8.968;2022-07-06T12:46:41;8.73;;;2.77;;
6821;SDS011;3449;48.728;8.968;2022-07-06T12:49:13;2.20;;;2.00;;
6821;SDS011;3449;48.728;8.968;2022-07-06T12:51:49;4.43;;;2.20;;
6821;SDS011;3449;48.728;8.968;2022-07-06T12:54:22;2.67;;;2.10;;
6821;SDS011;3449;48.728;8.968;2022-07-06T12:57:06;6.17;;;1.83;;
6821;SDS011;3449;48.728;8.968;2022-07-06T12:59:39;5.40;;;2.40;;
6821;SDS011;3449;48.728;8.968;2022-07-06T13:02:08;3.57;;;2.67;;
6821;SDS011;3449;48.728;8.968;2022-07-06T13:04:43;5.73;;;2.47;;
6821;SDS011;3449;48.728;8.968;2022-07-06T13:07:20;8.37;;;2.70;;
6821;SDS011;3449;48.728;8.968;2022-07-06T13:09:48;2.80;;;1.90;;
6821;SDS011;3449;48.728;8.968;2022-07-06T13:12:15;13.23;;;3.57;;
6821;SDS011;3449;48.728;8.968;2022-07-06T13:14:42;6.23;;;2.73;;
6821;SDS011;3449;48.728;8.968;2022-07-06T13:17:08;2.60;;;1.80;;
6821;SDS011;3449;48.728;8.968;2022-07-06T13:19:35;6.20;;;2.50;;
6821;SDS011;3449;48.728;8.968;2022-07-06T13:22:02;3.87;;;2.30;;
6821;SDS011;3449;48.728;8.968;2022-07-06T13:24:30;2.00;;;1.83;;
6821;SDS011;3449;48.728;8.968;2022-07-06T13:26:58;3.63;;;1.93;;
6821;SDS011;3449;48.728;8.968;2022-07-06T13:29:25;5.43;;;1.70;;
6821;SDS011;3449;48.728;8.968;2022-07-06T13:31:52;6.00;;;2.03;;
6821;SDS011;3449;48.728;8.968;2022-07-06T13:34:19;12.33;;;2.10;;
6821;SDS011;3449;48.728;8.968;2022-07-06T13:36:47;5.60;;;2.13;;
6821;SDS011;3449;48.728;8.968;2022-07-06T13:39:13;13.53;;;2.07;;
6821;SDS011;3449;48.728;8.968;2022-07-06T13:41:41;4.77;;;2.50;;
6821;SDS011;3449;48.728;8.968;2022-07-06T13:44:10;4.83;;;1.70;;
6821;SDS011;3449;48.728;8.968;2022-07-06T13:46:38;5.37;;;2.30;;
6821;SDS011;3449;48.728;8.968;2022-07-06T13:49:05;3.50;;;1.73;;
6821;SDS011;3449;48.728;8.968;2022-07-06T13:51:32;7.40;;;1.30;;
6821;SDS011;3449;48.728;8.968;2022-07-06T13:53:59;5.87;;;2.13;;
6821;SDS011;3449;48.728;8.968;2022-07-06T13:56:27;3.13;;;1.60;;
6821;SDS011;3449;48.728;8.968;2022-07-06T13:58:54;1.80;;;1.60;;
6821;SDS011;3449;48.728;8.968;2022-07-06T14:01:23;12.60;;;1.50;;
6821;SDS011;3449;48.728;8.968;2022-07-06T14:03:50;5.90;;;1.80;;
6821;SDS011;3449;48.728;8.968;2022-07-06T14:06:18;4.33;;;1.70;;
6821;SDS011;3449;48.728;8.968;2022-07-06T14:08:45;2.90;;;2.13;;
6821;SDS011;3449;48.728;8.968;2022-07-06T14:11:13;6.07;;;1.80;;
6821;SDS011;3449;48.728;8.968;2022-07-06T14:13:40;3.33;;;1.97;;
6821;SDS011;3449;48.728;8.968;2022-07-06T14:16:08;1.93;;;1.60;;
6821;SDS011;3449;48.728;8.968;2022-07-06T14:18:37;3.60;;;1.83;;
6821;SDS011;3449;48.728;8.968;2022-07-06T14:21:04;2.40;;;1.87;;
6821;SDS011;3449;48.728;8.968;2022-07-06T14:23:31;4.53;;;1.73;;
6821;SDS011;3449;48.728;8.968;2022-07-06T14:25:58;6.53;;;1.97;;
6821;SDS011;3449;48.728;8.968;2022-07-06T14:28:25;3.17;;;1.77;;
6821;SDS011;3449;48.728;8.968;2022-07-06T14:30:52;3.70;;;1.70;;
6821;SDS011;3449;48.728;8.968;2022-07-06T14:33:19;2.33;;;1.70;;
6821;SDS011;3449;48.728;8.968;2022-07-06T14:35:48;9.50;;;1.63;;
6821;SDS011;3449;48.728;8.968;2022-07-06T14:38:17;3.37;;;1.90;;
6821;SDS011;3449;48.728;8.968;2022-07-06T14:40:44;2.80;;;2.40;;
6821;SDS011;3449;48.728;8.968;2022-07-06T14:43:13;3.40;;;2.00;;
6821;SDS011;3449;48.728;8.968;2022-07-06T14:45:40;4.43;;;2.03;;
6821;SDS011;3449;48.728;8.968;2022-07-06T14:48:08;2.70;;;1.50;;
6821;SDS011;3449;48.728;8.968;2022-07-06T14:50:35;2.40;;;1.80;;
6821;SDS011;3449;48.728;8.968;2022-07-06T14:53:04;2.23;;;1.80;;
6821;SDS011;3449;48.728;8.968;2022-07-06T14:55:31;2.33;;;1.50;;
6821;SDS011;3449;48.728;8.968;2022-07-06T14:57:58;1.73;;;1.63;;
6821;SDS011;3449;48.728;8.968;2022-07-06T15:00:25;3.70;;;2.40;;
6821;SDS011;3449;48.728;8.968;2022-07-06T15:02:52;9.53;;;1.60;;
6821;SDS011;3449;48.728;8.968;2022-07-06T15:05:19;4.03;;;1.53;;
6821;SDS011;3449;48.728;8.968;2022-07-06T15:07:45;1.77;;;1.30;;
6821;SDS011;3449;48.728;8.968;2022-07-06T15:10:14;6.40;;;1.33;;
6821;SDS011;3449;48.728;8.968;2022-07-06T15:12:41;2.93;;;1.27;;
6821;SDS011;3449;48.728;8.968;2022-07-06T15:15:08;2.83;;;1.40;;
6821;SDS011;3449;48.728;8.968;2022-07-06T15:17:36;1.60;;;1.50;;
6821;SDS011;3449;48.728;8.968;2022-07-06T15:20:03;1.90;;;1.37;;